createdAt,value
2023-05-13T00:02:21.773Z,1.43
2023-05-13T00:04:50.256Z,1.50
2023-05-13T00:07:18.535Z,1.30
2023-05-13T00:09:46.863Z,1.37
2023-05-13T00:12:15.378Z,1.90
2023-05-13T00:14:43.658Z,1.80
2023-05-13T00:17:12.022Z,2.03
2023-05-13T00:19:40.539Z,1.30
2023-05-13T00:22:08.836Z,1.00
2023-05-13T00:24:37.207Z,1.37
2023-05-13T00:27:05.703Z,1.20
2023-05-13T00:29:34.043Z,1.07
2023-05-13T00:32:02.459Z,1.30
2023-05-13T00:34:30.914Z,1.40
2023-05-13T00:36:59.240Z,1.20
2023-05-13T00:39:27.998Z,1.20
2023-05-13T00:41:56.316Z,1.40
2023-05-13T00:44:24.748Z,1.30
2023-05-13T00:46:53.066Z,1.60
2023-05-13T00:49:21.438Z,1.20
2023-05-13T00:51:51.385Z,1.10
2023-05-13T00:54:19.708Z,1.27
2023-05-13T00:56:48.173Z,1.40
2023-05-13T00:59:16.490Z,1.37
2023-05-13T01:02:20.565Z,1.10
2023-05-13T01:05:04.219Z,1.33
2023-05-13T01:07:56.830Z,2.07
2023-05-13T01:10:28.135Z,1.20
2023-05-13T01:13:04.775Z,1.57
2023-05-13T01:15:34.464Z,1.10
2023-05-13T01:18:20.820Z,1.17
2023-05-13T01:20:49.342Z,1.00
2023-05-13T01:23:17.620Z,1.90
2023-05-13T01:25:46.074Z,1.50
2023-05-13T01:28:14.753Z,2.10
2023-05-13T01:30:43.187Z,1.60
2023-05-13T01:33:12.304Z,1.43
2023-05-13T01:35:41.155Z,1.33
2023-05-13T01:38:09.868Z,1.63
2023-05-13T01:40:39.346Z,1.20
2023-05-13T01:43:08.263Z,1.60
2023-05-13T01:45:37.035Z,1.90
2023-05-13T01:48:05.971Z,0.97
2023-05-13T01:50:34.555Z,1.57
2023-05-13T01:53:02.882Z,1.67
2023-05-13T01:55:31.762Z,1.63
2023-05-13T01:58:00.311Z,1.70
2023-05-13T02:00:28.748Z,1.50
2023-05-13T02:02:57.223Z,1.40
2023-05-13T02:05:26.123Z,1.50
2023-05-13T02:07:54.893Z,1.40
2023-05-13T02:10:23.727Z,1.40
2023-05-13T02:12:52.342Z,1.60
2023-05-13T02:15:20.812Z,1.27
2023-05-13T02:17:49.577Z,1.70
2023-05-13T02:20:18.012Z,1.63
2023-05-13T02:22:46.409Z,1.53
2023-05-13T02:25:14.749Z,1.70
2023-05-13T02:27:43.550Z,1.80
2023-05-13T02:30:15.044Z,1.73
2023-05-13T02:32:44.917Z,2.40
2023-05-13T02:35:13.305Z,2.10
2023-05-13T02:37:41.743Z,2.23
2023-05-13T02:40:10.859Z,2.30
2023-05-13T02:42:39.222Z,2.13
2023-05-13T02:45:08.197Z,3.17
2023-05-13T02:47:36.591Z,2.70
2023-05-13T02:50:07.103Z,2.80
2023-05-13T02:52:40.004Z,3.33
2023-05-13T02:55:09.706Z,3.60
2023-05-13T02:57:41.130Z,3.50
2023-05-13T03:00:10.076Z,3.67
2023-05-13T03:02:39.504Z,3.90
2023-05-13T03:05:08.830Z,3.03
2023-05-13T03:07:37.714Z,3.40
2023-05-13T03:10:06.763Z,3.93
2023-05-13T03:12:35.846Z,3.40
2023-05-13T03:15:05.274Z,2.80
2023-05-13T03:17:34.311Z,3.83
2023-05-13T03:20:02.775Z,3.50
2023-05-13T03:22:31.431Z,3.50
2023-05-13T03:24:59.959Z,2.90
2023-05-13T03:27:28.289Z,2.90
2023-05-13T03:29:56.608Z,2.67
2023-05-13T03:32:26.129Z,3.07
2023-05-13T03:34:54.430Z,2.90
2023-05-13T03:37:22.700Z,3.30
2023-05-13T03:39:51.800Z,2.43
2023-05-13T03:42:21.196Z,2.10
2023-05-13T03:44:49.521Z,2.30
2023-05-13T03:47:18.177Z,2.50
2023-05-13T03:49:48.761Z,2.10
2023-05-13T03:52:17.570Z,2.30
2023-05-13T03:54:46.098Z,2.53
2023-05-13T03:57:14.486Z,2.33
2023-05-13T03:59:43.032Z,2.57
2023-05-13T04:02:11.368Z,3.27
2023-05-13T04:04:39.777Z,2.60
2023-05-13T04:07:08.117Z,2.73
2023-05-13T04:09:36.600Z,2.60
2023-05-13T04:12:04.984Z,2.67
2023-05-13T04:14:33.264Z,2.80
2023-05-13T04:17:01.705Z,2.87
2023-05-13T04:19:30.102Z,2.30
2023-05-13T04:21:58.396Z,2.60
2023-05-13T04:24:26.710Z,2.57
2023-05-13T04:26:55.012Z,2.53
2023-05-13T04:29:23.312Z,2.40
2023-05-13T04:31:52.140Z,2.50
2023-05-13T04:34:20.522Z,2.30
2023-05-13T04:36:49.550Z,2.50
2023-05-13T04:39:18.016Z,2.27
2023-05-13T04:41:46.402Z,2.33
2023-05-13T04:44:14.686Z,2.40
2023-05-13T04:46:45.445Z,2.53
2023-05-13T04:49:13.853Z,2.30
2023-05-13T04:51:42.655Z,2.37
2023-05-13T04:54:11.171Z,2.27
2023-05-13T04:56:39.453Z,2.50
2023-05-13T04:59:07.737Z,2.53
2023-05-13T05:01:36.097Z,2.50
2023-05-13T05:04:04.559Z,2.43
2023-05-13T05:06:33.379Z,2.80
2023-05-13T05:09:01.977Z,2.60
2023-05-13T05:11:30.369Z,2.90
2023-05-13T05:13:58.646Z,2.27
2023-05-13T05:16:26.954Z,2.47
2023-05-13T05:18:55.471Z,3.13
2023-05-13T05:21:24.526Z,2.80
2023-05-13T05:23:52.845Z,3.00
2023-05-13T05:26:21.443Z,2.80
2023-05-13T05:28:49.750Z,2.47
2023-05-13T05:31:18.125Z,2.67
2023-05-13T05:33:46.484Z,3.47
2023-05-13T05:36:14.813Z,2.80
2023-05-13T05:38:43.119Z,3.40
2023-05-13T05:41:11.750Z,3.53
2023-05-13T05:43:40.061Z,2.90
2023-05-13T05:46:08.740Z,3.53
2023-05-13T05:48:37.297Z,3.33
2023-05-13T05:51:06.325Z,3.60
2023-05-13T05:53:36.452Z,3.50
2023-05-13T05:56:05.509Z,3.90
2023-05-13T05:58:33.941Z,3.87
2023-05-13T06:01:02.454Z,3.90
2023-05-13T06:03:30.834Z,3.97
2023-05-13T06:05:59.206Z,3.90
2023-05-13T06:08:30.866Z,4.70
2023-05-13T06:10:59.643Z,3.97
2023-05-13T06:13:27.984Z,4.23
2023-05-13T06:15:56.359Z,4.23
2023-05-13T06:18:24.929Z,3.87
2023-05-13T06:20:53.308Z,3.87
2023-05-13T06:23:21.693Z,4.07
2023-05-13T06:25:50.046Z,3.97
2023-05-13T06:28:18.352Z,4.00
2023-05-13T06:30:46.829Z,3.57
2023-05-13T06:33:15.270Z,4.00
2023-05-13T06:35:48.707Z,3.70
2023-05-13T06:38:20.429Z,4.20
2023-05-13T06:40:48.739Z,4.27
2023-05-13T06:43:17.174Z,4.10
2023-05-13T06:45:45.729Z,3.83
2023-05-13T06:48:15.403Z,4.43
2023-05-13T06:50:43.679Z,3.87
2023-05-13T06:53:14.895Z,3.77
2023-05-13T06:55:43.410Z,3.90
2023-05-13T06:58:12.051Z,3.77
2023-05-13T07:00:42.042Z,4.60
2023-05-13T07:03:10.547Z,3.50
2023-05-13T07:05:38.944Z,5.23
2023-05-13T07:08:07.719Z,3.80
2023-05-13T07:10:37.094Z,4.67
2023-05-13T07:13:05.889Z,4.03
2023-05-13T07:15:34.234Z,5.10
2023-05-13T07:18:02.592Z,3.63
2023-05-13T07:20:31.261Z,3.97
2023-05-13T07:22:59.650Z,4.23
2023-05-13T07:25:27.970Z,4.43
2023-05-13T07:27:56.374Z,4.17
2023-05-13T07:30:25.008Z,4.03
2023-05-13T07:32:54.099Z,4.10
2023-05-13T07:35:22.980Z,4.80
2023-05-13T07:37:51.538Z,4.30
2023-05-13T07:40:21.636Z,4.47
2023-05-13T07:42:50.142Z,4.17
2023-05-13T07:45:18.510Z,5.23
2023-05-13T07:47:46.915Z,4.60
2023-05-13T07:50:15.291Z,4.27
2023-05-13T07:52:44.416Z,4.93
2023-05-13T07:55:12.816Z,4.60
2023-05-13T07:57:41.271Z,4.20
2023-05-13T08:00:10.167Z,5.17
2023-05-13T08:02:42.582Z,4.80
2023-05-13T08:05:11.986Z,4.70
2023-05-13T08:07:40.411Z,5.27
2023-05-13T08:10:09.248Z,5.00
2023-05-13T08:12:37.830Z,4.13
2023-05-13T08:15:06.964Z,5.20
2023-05-13T08:17:36.145Z,5.10
2023-05-13T08:20:04.918Z,5.60
2023-05-13T08:22:33.233Z,4.70
2023-05-13T08:25:01.883Z,4.30
2023-05-13T08:27:30.285Z,4.37
2023-05-13T08:29:58.615Z,4.80
2023-05-13T08:32:26.935Z,5.00
2023-05-13T08:34:55.279Z,4.60
2023-05-13T08:37:23.646Z,4.90
2023-05-13T08:39:52.030Z,4.73
2023-05-13T08:42:22.512Z,5.17
2023-05-13T08:44:53.161Z,4.60
2023-05-13T08:47:41.424Z,5.97
2023-05-13T08:50:10.472Z,5.23
2023-05-13T08:52:38.820Z,4.57
2023-05-13T08:55:09.524Z,4.50
2023-05-13T08:57:37.865Z,4.97
2023-05-13T09:00:06.684Z,5.30
2023-05-13T09:02:35.047Z,5.10
2023-05-13T09:05:08.361Z,5.00
2023-05-13T09:07:38.694Z,4.90
2023-05-13T09:10:08.948Z,4.67
2023-05-13T09:12:55.487Z,5.40
2023-05-13T09:15:26.261Z,6.37
2023-05-13T09:18:09.328Z,4.70
2023-05-13T09:20:38.187Z,4.80
2023-05-13T09:23:11.717Z,4.90
2023-05-13T09:25:40.671Z,5.13
2023-05-13T09:28:09.349Z,4.80
2023-05-13T09:30:46.814Z,4.87
2023-05-13T09:33:20.534Z,4.80
2023-05-13T09:35:54.284Z,5.07
2023-05-13T09:38:28.410Z,4.47
2023-05-13T09:41:01.636Z,4.53
2023-05-13T09:43:33.479Z,5.43
2023-05-13T09:46:06.229Z,5.27
2023-05-13T09:48:35.659Z,5.03
2023-05-13T09:51:04.083Z,5.30
2023-05-13T09:53:33.265Z,4.47
2023-05-13T09:56:02.536Z,5.40
2023-05-13T09:58:31.504Z,5.60
2023-05-13T10:01:00.367Z,5.03
2023-05-13T10:03:29.958Z,5.13
2023-05-13T10:06:02.263Z,4.93
2023-05-13T10:08:31.998Z,5.40
2023-05-13T10:11:00.620Z,5.00
2023-05-13T10:13:30.735Z,5.03
2023-05-13T10:15:59.672Z,4.63
2023-05-13T10:18:29.768Z,4.57
2023-05-13T10:20:58.640Z,5.00
2023-05-13T10:23:29.170Z,5.17
2023-05-13T10:25:58.116Z,4.50
2023-05-13T10:28:27.265Z,5.53
2023-05-13T10:30:55.615Z,5.40
2023-05-13T10:33:24.158Z,5.33
2023-05-13T10:36:04.359Z,4.73
2023-05-13T10:39:02.196Z,5.53
2023-05-13T10:41:51.666Z,4.40
2023-05-13T10:44:21.617Z,4.50
2023-05-13T10:46:50.278Z,4.73
2023-05-13T10:49:18.702Z,5.30
2023-05-13T10:51:49.993Z,4.87
2023-05-13T10:54:25.707Z,5.90
2023-05-13T10:57:03.147Z,5.50
2023-05-13T10:59:31.533Z,5.60
2023-05-13T11:02:03.471Z,5.20
2023-05-13T11:04:32.046Z,6.13
2023-05-13T11:07:17.408Z,5.23
2023-05-13T11:09:51.964Z,6.07
2023-05-13T11:12:20.311Z,5.50
2023-05-13T11:14:49.529Z,5.30
2023-05-13T11:17:21.509Z,6.60
2023-05-13T11:19:52.304Z,5.60
2023-05-13T11:22:24.917Z,5.63
2023-05-13T11:25:11.119Z,5.63
2023-05-13T11:27:41.445Z,5.50
2023-05-13T11:30:30.035Z,6.90
2023-05-13T11:33:00.268Z,6.47
2023-05-13T11:35:34.913Z,5.97
2023-05-13T11:38:04.634Z,6.47
2023-05-13T11:40:39.089Z,5.63
2023-05-13T11:43:07.683Z,6.13
2023-05-13T11:45:40.912Z,5.70
2023-05-13T11:48:23.442Z,6.63
2023-05-13T11:50:55.055Z,5.90
2023-05-13T11:53:23.736Z,5.67
2023-05-13T11:55:52.383Z,6.67
2023-05-13T11:58:22.606Z,6.40
2023-05-13T12:00:51.014Z,5.70
2023-05-13T12:03:19.346Z,6.70
2023-05-13T12:05:48.456Z,5.60
2023-05-13T12:08:16.909Z,5.80
2023-05-13T12:10:47.157Z,5.33
2023-05-13T12:13:15.818Z,6.07
2023-05-13T12:15:44.338Z,5.57
2023-05-13T12:18:13.651Z,6.20
2023-05-13T12:20:41.996Z,5.50
2023-05-13T12:23:14.797Z,6.00
2023-05-13T12:25:48.612Z,5.33
2023-05-13T12:28:24.938Z,5.60
2023-05-13T12:31:00.403Z,5.10
2023-05-13T12:33:30.338Z,5.50
2023-05-13T12:36:21.373Z,5.00
2023-05-13T12:39:21.357Z,5.87
2023-05-13T12:41:54.416Z,5.77
2023-05-13T12:44:23.365Z,4.73
2023-05-13T12:46:53.220Z,5.30
2023-05-13T12:49:23.097Z,5.23
2023-05-13T12:51:56.434Z,5.27
2023-05-13T12:54:24.947Z,5.00
2023-05-13T12:56:53.759Z,6.03
2023-05-13T12:59:22.051Z,5.50
2023-05-13T13:01:50.563Z,5.70
2023-05-13T13:04:20.016Z,5.70
2023-05-13T13:06:48.463Z,4.93
2023-05-13T13:09:16.770Z,6.50
2023-05-13T13:11:45.089Z,5.00
2023-05-13T13:14:13.419Z,6.40
2023-05-13T13:16:41.738Z,6.03
2023-05-13T13:19:10.935Z,6.13
2023-05-13T13:21:39.246Z,5.10
2023-05-13T13:24:07.735Z,5.93
2023-05-13T13:26:36.204Z,5.47
2023-05-13T13:29:04.497Z,5.20
2023-05-13T13:31:32.851Z,4.87
2023-05-13T13:34:05.112Z,6.00
2023-05-13T13:36:33.659Z,5.60
2023-05-13T13:39:02.008Z,5.33
2023-05-13T13:41:30.307Z,4.77
2023-05-13T13:43:58.669Z,5.07
2023-05-13T13:46:27.040Z,4.87
2023-05-13T13:48:55.486Z,4.57
2023-05-13T13:51:23.810Z,5.20
2023-05-13T13:53:52.149Z,5.23
2023-05-13T13:56:21.684Z,5.87
2023-05-13T13:58:50.126Z,6.07
2023-05-13T14:01:20.380Z,6.20
2023-05-13T14:03:51.659Z,6.03
2023-05-13T14:06:20.572Z,4.93
2023-05-13T14:08:50.692Z,5.20
2023-05-13T14:11:18.977Z,5.47
2023-05-13T14:13:47.253Z,5.60
2023-05-13T14:16:15.712Z,5.50
2023-05-13T14:18:45.134Z,5.10
2023-05-13T14:21:13.504Z,5.77
2023-05-13T14:23:44.898Z,5.03
2023-05-13T14:26:16.096Z,4.93
2023-05-13T14:28:44.595Z,5.63
2023-05-13T14:31:12.979Z,5.60
2023-05-13T14:33:41.314Z,5.17
2023-05-13T14:36:11.900Z,4.50
2023-05-13T14:38:40.652Z,5.17
2023-05-13T14:41:09.088Z,4.40
2023-05-13T14:43:37.424Z,4.07
2023-05-13T14:46:05.802Z,4.20
2023-05-13T14:48:34.167Z,4.60
2023-05-13T14:51:02.453Z,3.40
2023-05-13T14:53:30.820Z,5.20
2023-05-13T14:55:59.264Z,5.47
2023-05-13T14:58:27.603Z,6.80
2023-05-13T15:00:56.207Z,9.27
2023-05-13T15:03:24.554Z,10.40
2023-05-13T15:05:53.188Z,11.47
2023-05-13T15:08:21.848Z,7.97
2023-05-13T15:10:50.204Z,6.90
2023-05-13T15:13:19.569Z,3.40
2023-05-13T15:16:00.362Z,3.20
2023-05-13T15:18:28.750Z,2.93
2023-05-13T15:20:57.105Z,3.60
2023-05-13T15:23:25.451Z,2.20
2023-05-13T15:25:53.735Z,2.63
2023-05-13T15:28:22.032Z,2.70
2023-05-13T15:30:50.341Z,2.73
2023-05-13T15:33:18.645Z,2.47
2023-05-13T15:35:46.978Z,2.50
2023-05-13T15:38:15.336Z,2.50
2023-05-13T15:40:43.641Z,2.53
2023-05-13T15:43:12.521Z,2.00
2023-05-13T15:45:40.908Z,2.50
2023-05-13T15:48:09.560Z,2.90
2023-05-13T15:50:38.022Z,2.10
2023-05-13T15:53:06.949Z,2.67
2023-05-13T15:55:37.585Z,2.60
2023-05-13T15:58:06.191Z,2.20
2023-05-13T16:00:34.650Z,1.90
2023-05-13T16:03:03.373Z,2.53
2023-05-13T16:05:31.796Z,2.60
2023-05-13T16:08:00.564Z,3.10
2023-05-13T16:10:28.916Z,2.40
2023-05-13T16:12:57.184Z,2.00
2023-05-13T16:15:25.788Z,2.83
2023-05-13T16:17:54.592Z,2.87
2023-05-13T16:20:23.771Z,2.80
2023-05-13T16:22:52.391Z,2.33
2023-05-13T16:25:21.359Z,2.40
2023-05-13T16:27:50.324Z,2.40
2023-05-13T16:30:18.646Z,1.93
2023-05-13T16:32:49.632Z,2.57
2023-05-13T16:35:18.018Z,2.58
2023-05-13T16:37:47.226Z,2.20
2023-05-13T16:40:15.803Z,2.03
2023-05-13T16:42:44.130Z,1.88
2023-05-13T16:45:12.661Z,2.00
2023-05-13T16:47:41.033Z,2.85
2023-05-13T16:50:09.843Z,2.35
2023-05-13T16:52:38.201Z,2.05
2023-05-13T16:55:07.093Z,2.20
2023-05-13T16:57:35.417Z,1.92
2023-05-13T17:00:03.866Z,1.67
2023-05-13T17:02:32.208Z,1.92
2023-05-13T17:05:00.563Z,2.03
2023-05-13T17:07:28.962Z,1.95
2023-05-13T17:09:57.447Z,1.88
2023-05-13T17:12:25.751Z,1.75
2023-05-13T17:14:54.160Z,2.40
2023-05-13T17:17:22.467Z,2.30
2023-05-13T17:19:51.169Z,1.80
2023-05-13T17:22:19.470Z,2.30
2023-05-13T17:24:47.754Z,2.57
2023-05-13T17:27:16.041Z,2.53
2023-05-13T17:29:44.467Z,2.03
2023-05-13T17:32:12.770Z,2.30
2023-05-13T17:34:41.155Z,2.40
2023-05-13T17:37:09.453Z,2.33
2023-05-13T17:39:37.746Z,2.33
2023-05-13T17:42:06.117Z,2.90
2023-05-13T17:44:34.504Z,2.40
2023-05-13T17:47:02.816Z,2.33
2023-05-13T17:49:31.135Z,3.47
2023-05-13T17:51:59.406Z,5.30
2023-05-13T17:54:27.674Z,3.30
2023-05-13T17:56:55.979Z,8.20
2023-05-13T17:59:24.325Z,2.30
2023-05-13T18:01:52.697Z,14.97
2023-05-13T18:04:21.070Z,2.43
2023-05-13T18:06:49.480Z,2.50
2023-05-13T18:09:17.973Z,10.93
2023-05-13T18:11:47.084Z,2.27
2023-05-13T18:14:17.631Z,8.13
2023-05-13T18:16:46.172Z,3.80
2023-05-13T18:19:14.679Z,2.27
2023-05-13T18:21:43.097Z,2.77
2023-05-13T18:24:11.592Z,14.57
2023-05-13T18:26:39.915Z,6.33
2023-05-13T18:29:08.266Z,2.43
2023-05-13T18:31:36.592Z,3.43
2023-05-13T18:34:05.229Z,2.10
2023-05-13T18:36:33.583Z,2.33
2023-05-13T18:39:02.028Z,2.40
2023-05-13T18:41:30.398Z,2.63
2023-05-13T18:43:58.722Z,2.30
2023-05-13T18:46:27.127Z,3.00
2023-05-13T18:48:55.515Z,2.53
2023-05-13T18:51:23.820Z,2.43
2023-05-13T18:53:52.205Z,2.80
2023-05-13T18:56:20.553Z,2.10
2023-05-13T18:58:48.876Z,1.63
2023-05-13T19:01:17.483Z,2.10
2023-05-13T19:03:45.967Z,2.10
2023-05-13T19:06:14.361Z,2.25
2023-05-13T19:08:43.045Z,2.13
2023-05-13T19:11:12.136Z,2.35
2023-05-13T19:16:14.379Z,1.90
2023-05-13T19:18:42.885Z,2.22
2023-05-13T19:21:11.483Z,1.80
2023-05-13T19:23:39.861Z,1.80
2023-05-13T19:26:08.654Z,1.95
2023-05-13T19:28:38.949Z,1.92
2023-05-13T19:31:07.379Z,1.70
2023-05-13T19:33:37.736Z,2.10
2023-05-13T19:36:07.236Z,2.30
2023-05-13T19:38:36.749Z,2.10
2023-05-13T19:41:05.105Z,2.30
2023-05-13T19:43:33.496Z,2.10
2023-05-13T19:46:01.885Z,2.40
2023-05-13T19:48:31.392Z,2.70
2023-05-13T19:50:59.864Z,1.83
2023-05-13T19:53:28.237Z,2.60
2023-05-13T19:55:56.752Z,2.50
2023-05-13T19:58:25.092Z,2.57
2023-05-13T20:00:53.678Z,2.37
2023-05-13T20:03:22.048Z,2.43
2023-05-13T20:05:50.388Z,2.53
2023-05-13T20:08:18.723Z,2.20
2023-05-13T20:10:47.267Z,2.13
2023-05-13T20:13:15.601Z,2.37
2023-05-13T20:15:44.134Z,2.67
2023-05-13T20:18:12.444Z,2.37
2023-05-13T20:20:42.330Z,1.90
2023-05-13T20:23:11.996Z,1.90
2023-05-13T20:25:41.544Z,1.60
2023-05-13T20:28:09.843Z,2.13
2023-05-13T20:30:38.149Z,1.83
2023-05-13T20:33:07.194Z,2.00
2023-05-13T20:35:37.587Z,1.80
2023-05-13T20:38:06.094Z,2.07
2023-05-13T20:40:34.854Z,1.80
2023-05-13T20:43:04.205Z,2.10
2023-05-13T20:45:33.435Z,1.67
2023-05-13T20:48:01.971Z,1.97
2023-05-13T20:50:30.471Z,1.70
2023-05-13T20:52:58.760Z,1.73
2023-05-13T20:55:27.253Z,1.70
2023-05-13T20:57:55.624Z,2.33
2023-05-13T21:00:24.417Z,1.97
2023-05-13T21:02:54.004Z,2.20
2023-05-13T21:05:22.624Z,1.53
2023-05-13T21:07:51.131Z,1.47
2023-05-13T21:10:19.597Z,1.83
2023-05-13T21:12:48.776Z,1.50
2023-05-13T21:15:17.470Z,1.50
2023-05-13T21:17:47.080Z,1.80
2023-05-13T21:20:15.475Z,1.67
2023-05-13T21:22:43.829Z,2.10
2023-05-13T21:25:12.172Z,1.43
2023-05-13T21:27:40.639Z,1.60
2023-05-13T21:30:09.481Z,2.00
2023-05-13T21:32:37.804Z,1.80
2023-05-13T21:35:06.669Z,2.20
2023-05-13T21:37:34.984Z,1.90
2023-05-13T21:40:03.297Z,1.40
2023-05-13T21:42:31.667Z,1.60
2023-05-13T21:45:00.145Z,1.63
2023-05-13T21:47:30.241Z,2.10
2023-05-13T21:49:59.121Z,1.90
2023-05-13T21:52:27.525Z,1.83
2023-05-13T21:54:55.916Z,2.00
2023-05-13T21:57:24.207Z,1.73
2023-05-13T21:59:52.562Z,2.00
2023-05-13T22:02:20.973Z,1.97
2023-05-13T22:04:49.344Z,2.17
2023-05-13T22:07:17.619Z,2.60
2023-05-13T22:09:46.995Z,2.13
2023-05-13T22:12:16.316Z,2.30
2023-05-13T22:14:44.822Z,2.63
2023-05-13T22:17:13.329Z,2.30
2023-05-13T22:19:42.147Z,2.10
2023-05-13T22:22:10.656Z,2.63
2023-05-13T22:24:39.001Z,1.93
2023-05-13T22:27:07.459Z,2.07
2023-05-13T22:29:35.810Z,2.50
2023-05-13T22:32:04.421Z,2.33
2023-05-13T22:34:34.426Z,1.60
2023-05-13T22:37:02.934Z,2.30
2023-05-13T22:39:31.419Z,2.63
2023-05-13T22:41:59.746Z,2.57
2023-05-13T22:44:28.072Z,2.57
2023-05-13T22:46:56.484Z,2.07
2023-05-13T22:49:24.861Z,2.40
2023-05-13T22:51:53.324Z,2.63
2023-05-13T22:54:21.606Z,2.70
2023-05-13T22:56:49.876Z,2.40
2023-05-13T22:59:18.187Z,2.10
2023-05-13T23:01:46.656Z,2.20
2023-05-13T23:04:15.043Z,2.40
2023-05-13T23:06:43.346Z,2.37
2023-05-13T23:09:11.767Z,2.33
2023-05-13T23:11:40.152Z,2.80
2023-05-13T23:14:09.678Z,2.70
2023-05-13T23:16:38.116Z,3.07
2023-05-13T23:19:06.857Z,2.47
2023-05-13T23:21:35.309Z,2.40
2023-05-13T23:24:03.767Z,2.23
2023-05-13T23:26:32.729Z,2.50
2023-05-13T23:29:01.101Z,2.80
2023-05-13T23:31:29.691Z,3.17
2023-05-13T23:33:58.054Z,2.97
2023-05-13T23:36:26.475Z,2.73
2023-05-13T23:38:54.963Z,2.80
2023-05-13T23:41:23.317Z,3.60
2023-05-13T23:43:51.778Z,2.90
2023-05-13T23:46:20.117Z,2.37
2023-05-13T23:48:48.457Z,2.97
2023-05-13T23:51:16.843Z,3.00
2023-05-13T23:53:45.483Z,2.77
2023-05-13T23:56:13.756Z,2.47
2023-05-13T23:58:42.048Z,2.47
